Terminal Aerodrome Forecast
Issued by NWS

Home | Current Version | Previous Version | Text Only | Print | Product List | Glossary On
Versions: 1 2 3 4 5 6 7 8 9 10 11 12 13 14 15
000
FTUS43 KDTX 292320
TAFDET
TAF
KDET 292320Z 3000/3024 22014G22KT P6SM SCT025 OVC045
      TEMPO 3002/3004 -SHRASN BKN035
     FM300400 25012KT P6SM BKN025 OVC035
     FM301400 27012KT P6SM BKN035
     FM301800 28016G26KT P6SM SCT040 SCT200=

USA.gov is the U.S. government's official web portal to all federal, state and local government web resources and services.